sensor_id;sensor_type;location;lat;lon;timestamp;P1;durP1;ratioP1;P2;durP2;ratioP2
239;SDS011;104;53.590;10.004;2023-05-29T00:01:23;463.03;;;321.20;;
239;SDS011;104;53.590;10.004;2023-05-29T00:03:50;372.87;;;280.63;;
239;SDS011;104;53.590;10.004;2023-05-29T00:06:18;442.27;;;297.20;;
239;SDS011;104;53.590;10.004;2023-05-29T00:08:45;444.67;;;303.47;;
239;SDS011;104;53.590;10.004;2023-05-29T00:11:12;420.10;;;295.43;;
239;SDS011;104;53.590;10.004;2023-05-29T00:13:39;421.93;;;278.87;;
239;SDS011;104;53.590;10.004;2023-05-29T00:16:08;375.03;;;264.57;;
239;SDS011;104;53.590;10.004;2023-05-29T00:18:35;430.43;;;280.17;;
239;SDS011;104;53.590;10.004;2023-05-29T00:21:10;431.07;;;291.03;;
239;SDS011;104;53.590;10.004;2023-05-29T00:23:37;431.83;;;271.53;;
239;SDS011;104;53.590;10.004;2023-05-29T00:26:05;404.47;;;277.73;;
239;SDS011;104;53.590;10.004;2023-05-29T00:28:32;289.33;;;215.13;;
239;SDS011;104;53.590;10.004;2023-05-29T00:30:58;422.93;;;262.20;;
239;SDS011;104;53.590;10.004;2023-05-29T00:33:27;425.27;;;267.97;;
239;SDS011;104;53.590;10.004;2023-05-29T00:35:54;393.40;;;262.10;;
239;SDS011;104;53.590;10.004;2023-05-29T00:38:21;380.80;;;262.50;;
239;SDS011;104;53.590;10.004;2023-05-29T00:40:48;391.97;;;277.90;;
239;SDS011;104;53.590;10.004;2023-05-29T00:43:15;342.83;;;235.87;;
239;SDS011;104;53.590;10.004;2023-05-29T00:45:42;378.57;;;258.87;;
239;SDS011;104;53.590;10.004;2023-05-29T00:48:09;354.23;;;241.27;;
239;SDS011;104;53.590;10.004;2023-05-29T00:50:37;211.57;;;170.10;;
239;SDS011;104;53.590;10.004;2023-05-29T00:53:05;341.13;;;229.50;;
239;SDS011;104;53.590;10.004;2023-05-29T00:55:33;368.80;;;249.47;;
239;SDS011;104;53.590;10.004;2023-05-29T00:58:00;354.30;;;251.23;;
239;SDS011;104;53.590;10.004;2023-05-29T01:00:27;316.33;;;227.03;;
239;SDS011;104;53.590;10.004;2023-05-29T01:02:55;303.27;;;215.30;;
239;SDS011;104;53.590;10.004;2023-05-29T01:05:23;245.53;;;176.33;;
239;SDS011;104;53.590;10.004;2023-05-29T01:07:52;192.33;;;148.80;;
239;SDS011;104;53.590;10.004;2023-05-29T01:10:19;254.80;;;193.53;;
239;SDS011;104;53.590;10.004;2023-05-29T01:12:47;337.93;;;238.53;;
239;SDS011;104;53.590;10.004;2023-05-29T01:15:23;397.27;;;257.80;;
239;SDS011;104;53.590;10.004;2023-05-29T01:18:03;285.93;;;211.60;;
239;SDS011;104;53.590;10.004;2023-05-29T01:20:40;130.93;;;116.80;;
239;SDS011;104;53.590;10.004;2023-05-29T01:23:18;319.83;;;224.23;;
239;SDS011;104;53.590;10.004;2023-05-29T01:26:07;411.77;;;267.07;;
239;SDS011;104;53.590;10.004;2023-05-29T01:28:42;535.27;;;285.63;;
239;SDS011;104;53.590;10.004;2023-05-29T01:31:14;490.93;;;284.10;;
239;SDS011;104;53.590;10.004;2023-05-29T01:33:46;518.00;;;288.70;;
239;SDS011;104;53.590;10.004;2023-05-29T01:36:18;485.63;;;292.93;;
239;SDS011;104;53.590;10.004;2023-05-29T01:38:45;463.87;;;289.23;;
239;SDS011;104;53.590;10.004;2023-05-29T01:41:12;490.60;;;284.63;;
239;SDS011;104;53.590;10.004;2023-05-29T01:43:42;366.87;;;263.00;;
239;SDS011;104;53.590;10.004;2023-05-29T01:46:10;580.57;;;286.03;;
239;SDS011;104;53.590;10.004;2023-05-29T01:48:37;554.10;;;303.17;;
239;SDS011;104;53.590;10.004;2023-05-29T01:51:04;721.73;;;305.90;;
239;SDS011;104;53.590;10.004;2023-05-29T01:53:32;594.77;;;296.47;;
239;SDS011;104;53.590;10.004;2023-05-29T01:55:59;632.43;;;288.27;;
239;SDS011;104;53.590;10.004;2023-05-29T01:58:26;490.43;;;277.13;;
239;SDS011;104;53.590;10.004;2023-05-29T02:00:57;498.50;;;271.80;;
239;SDS011;104;53.590;10.004;2023-05-29T02:03:24;352.97;;;243.93;;
239;SDS011;104;53.590;10.004;2023-05-29T02:05:53;328.87;;;234.50;;
239;SDS011;104;53.590;10.004;2023-05-29T02:08:21;433.50;;;280.70;;
239;SDS011;104;53.590;10.004;2023-05-29T02:10:48;374.60;;;222.47;;
239;SDS011;104;53.590;10.004;2023-05-29T02:13:15;391.33;;;262.60;;
239;SDS011;104;53.590;10.004;2023-05-29T02:15:43;232.00;;;172.23;;
239;SDS011;104;53.590;10.004;2023-05-29T02:18:12;415.53;;;275.90;;
239;SDS011;104;53.590;10.004;2023-05-29T02:20:42;297.43;;;182.47;;
239;SDS011;104;53.590;10.004;2023-05-29T02:23:09;59.67;;;56.77;;
239;SDS011;104;53.590;10.004;2023-05-29T02:25:36;363.40;;;235.33;;
239;SDS011;104;53.590;10.004;2023-05-29T02:28:03;383.87;;;243.13;;
239;SDS011;104;53.590;10.004;2023-05-29T02:30:30;193.83;;;147.53;;
239;SDS011;104;53.590;10.004;2023-05-29T02:32:57;96.63;;;91.30;;
239;SDS011;104;53.590;10.004;2023-05-29T02:35:26;318.13;;;194.20;;
239;SDS011;104;53.590;10.004;2023-05-29T02:37:53;132.70;;;110.77;;
239;SDS011;104;53.590;10.004;2023-05-29T02:40:20;79.43;;;75.43;;
239;SDS011;104;53.590;10.004;2023-05-29T02:42:47;90.67;;;84.00;;
239;SDS011;104;53.590;10.004;2023-05-29T02:45:14;83.80;;;78.40;;
239;SDS011;104;53.590;10.004;2023-05-29T02:47:41;64.37;;;57.03;;
239;SDS011;104;53.590;10.004;2023-05-29T02:50:08;64.77;;;61.63;;
239;SDS011;104;53.590;10.004;2023-05-29T02:52:37;66.70;;;60.27;;
239;SDS011;104;53.590;10.004;2023-05-29T02:55:05;78.80;;;73.87;;
239;SDS011;104;53.590;10.004;2023-05-29T02:57:32;83.43;;;79.30;;
239;SDS011;104;53.590;10.004;2023-05-29T02:59:59;90.20;;;85.80;;
239;SDS011;104;53.590;10.004;2023-05-29T03:02:26;114.07;;;93.97;;
239;SDS011;104;53.590;10.004;2023-05-29T03:04:53;388.30;;;229.53;;
239;SDS011;104;53.590;10.004;2023-05-29T03:07:20;395.63;;;238.37;;
239;SDS011;104;53.590;10.004;2023-05-29T03:09:49;393.07;;;249.17;;
239;SDS011;104;53.590;10.004;2023-05-29T03:12:16;248.70;;;173.60;;
239;SDS011;104;53.590;10.004;2023-05-29T03:14:44;169.23;;;127.43;;
239;SDS011;104;53.590;10.004;2023-05-29T03:17:11;135.03;;;112.83;;
239;SDS011;104;53.590;10.004;2023-05-29T03:19:38;173.27;;;134.00;;
239;SDS011;104;53.590;10.004;2023-05-29T03:22:05;179.03;;;132.97;;
239;SDS011;104;53.590;10.004;2023-05-29T03:24:31;306.13;;;215.30;;
239;SDS011;104;53.590;10.004;2023-05-29T03:27:01;249.53;;;178.27;;
239;SDS011;104;53.590;10.004;2023-05-29T03:29:30;283.17;;;191.77;;
239;SDS011;104;53.590;10.004;2023-05-29T03:31:58;256.63;;;169.53;;
239;SDS011;104;53.590;10.004;2023-05-29T03:34:25;268.03;;;174.97;;
239;SDS011;104;53.590;10.004;2023-05-29T03:36:52;256.90;;;172.77;;
239;SDS011;104;53.590;10.004;2023-05-29T03:39:20;322.40;;;216.77;;
239;SDS011;104;53.590;10.004;2023-05-29T03:41:47;326.83;;;205.47;;
239;SDS011;104;53.590;10.004;2023-05-29T03:44:15;264.03;;;178.30;;
239;SDS011;104;53.590;10.004;2023-05-29T03:46:42;140.13;;;112.10;;
239;SDS011;104;53.590;10.004;2023-05-29T03:49:09;107.40;;;92.93;;
239;SDS011;104;53.590;10.004;2023-05-29T03:51:36;119.07;;;96.23;;
239;SDS011;104;53.590;10.004;2023-05-29T03:54:03;103.67;;;93.70;;
239;SDS011;104;53.590;10.004;2023-05-29T03:56:30;66.40;;;62.77;;
239;SDS011;104;53.590;10.004;2023-05-29T03:58:57;63.83;;;60.73;;
239;SDS011;104;53.590;10.004;2023-05-29T04:01:26;59.17;;;55.67;;
239;SDS011;104;53.590;10.004;2023-05-29T04:03:53;60.10;;;54.83;;
239;SDS011;104;53.590;10.004;2023-05-29T04:06:20;53.97;;;51.37;;
239;SDS011;104;53.590;10.004;2023-05-29T04:08:47;81.27;;;77.37;;
239;SDS011;104;53.590;10.004;2023-05-29T04:11:15;55.40;;;49.77;;
239;SDS011;104;53.590;10.004;2023-05-29T04:13:42;71.03;;;67.60;;
239;SDS011;104;53.590;10.004;2023-05-29T04:16:11;71.57;;;68.03;;
239;SDS011;104;53.590;10.004;2023-05-29T04:18:40;71.47;;;67.03;;
239;SDS011;104;53.590;10.004;2023-05-29T04:21:07;46.27;;;43.87;;
239;SDS011;104;53.590;10.004;2023-05-29T04:23:35;44.10;;;36.77;;
239;SDS011;104;53.590;10.004;2023-05-29T04:26:02;56.63;;;49.73;;
239;SDS011;104;53.590;10.004;2023-05-29T04:28:30;53.53;;;50.93;;
239;SDS011;104;53.590;10.004;2023-05-29T04:30:57;58.17;;;55.17;;
239;SDS011;104;53.590;10.004;2023-05-29T04:33:25;85.23;;;74.40;;
239;SDS011;104;53.590;10.004;2023-05-29T04:35:54;53.50;;;44.63;;
239;SDS011;104;53.590;10.004;2023-05-29T04:38:21;47.13;;;44.83;;
239;SDS011;104;53.590;10.004;2023-05-29T04:40:50;71.87;;;68.40;;
239;SDS011;104;53.590;10.004;2023-05-29T04:43:17;69.63;;;66.27;;
239;SDS011;104;53.590;10.004;2023-05-29T04:45:44;67.30;;;64.03;;
239;SDS011;104;53.590;10.004;2023-05-29T04:48:13;70.43;;;64.70;;
239;SDS011;104;53.590;10.004;2023-05-29T04:50:41;66.90;;;55.53;;
239;SDS011;104;53.590;10.004;2023-05-29T04:53:10;73.17;;;67.73;;
239;SDS011;104;53.590;10.004;2023-05-29T04:55:38;81.97;;;77.83;;
239;SDS011;104;53.590;10.004;2023-05-29T04:58:05;105.10;;;93.23;;
239;SDS011;104;53.590;10.004;2023-05-29T05:00:33;117.17;;;102.93;;
239;SDS011;104;53.590;10.004;2023-05-29T05:03:00;114.50;;;103.80;;
239;SDS011;104;53.590;10.004;2023-05-29T05:05:27;107.03;;;98.53;;
239;SDS011;104;53.590;10.004;2023-05-29T05:07:54;136.53;;;119.97;;
239;SDS011;104;53.590;10.004;2023-05-29T05:10:23;117.27;;;104.37;;
239;SDS011;104;53.590;10.004;2023-05-29T05:12:50;186.23;;;144.43;;
239;SDS011;104;53.590;10.004;2023-05-29T05:15:17;199.93;;;150.67;;
239;SDS011;104;53.590;10.004;2023-05-29T05:17:45;139.97;;;115.97;;
239;SDS011;104;53.590;10.004;2023-05-29T05:20:12;168.23;;;132.10;;
239;SDS011;104;53.590;10.004;2023-05-29T05:22:40;128.23;;;112.73;;
239;SDS011;104;53.590;10.004;2023-05-29T05:25:07;147.40;;;127.37;;
239;SDS011;104;53.590;10.004;2023-05-29T05:27:36;299.97;;;218.73;;
239;SDS011;104;53.590;10.004;2023-05-29T05:30:04;245.83;;;184.90;;
239;SDS011;104;53.590;10.004;2023-05-29T05:32:31;403.10;;;261.90;;
239;SDS011;104;53.590;10.004;2023-05-29T05:34:59;749.13;;;291.67;;
239;SDS011;104;53.590;10.004;2023-05-29T05:37:28;436.83;;;263.27;;
239;SDS011;104;53.590;10.004;2023-05-29T05:39:56;217.27;;;168.13;;
239;SDS011;104;53.590;10.004;2023-05-29T05:42:25;187.47;;;164.00;;
239;SDS011;104;53.590;10.004;2023-05-29T05:44:54;202.33;;;172.93;;
239;SDS011;104;53.590;10.004;2023-05-29T05:47:21;426.87;;;317.87;;
239;SDS011;104;53.590;10.004;2023-05-29T05:49:48;134.50;;;128.03;;
239;SDS011;104;53.590;10.004;2023-05-29T05:52:16;107.47;;;102.30;;
239;SDS011;104;53.590;10.004;2023-05-29T05:54:44;132.90;;;126.50;;
239;SDS011;104;53.590;10.004;2023-05-29T05:57:11;115.97;;;110.40;;
239;SDS011;104;53.590;10.004;2023-05-29T06:02:10;117.97;;;112.30;;
239;SDS011;104;53.590;10.004;2023-05-29T06:04:38;100.80;;;95.93;;
239;SDS011;104;53.590;10.004;2023-05-29T06:07:05;104.00;;;99.00;;
239;SDS011;104;53.590;10.004;2023-05-29T06:09:32;136.33;;;129.83;;
239;SDS011;104;53.590;10.004;2023-05-29T06:12:00;91.60;;;87.20;;
239;SDS011;104;53.590;10.004;2023-05-29T06:14:27;109.20;;;103.93;;
239;SDS011;104;53.590;10.004;2023-05-29T06:16:54;96.77;;;92.10;;
239;SDS011;104;53.590;10.004;2023-05-29T06:19:23;112.60;;;107.20;;
239;SDS011;104;53.590;10.004;2023-05-29T06:34:54;121.17;;;115.37;;
239;SDS011;104;53.590;10.004;2023-05-29T06:37:22;125.57;;;119.53;;
239;SDS011;104;53.590;10.004;2023-05-29T06:39:49;133.60;;;127.20;;
239;SDS011;104;53.590;10.004;2023-05-29T06:42:17;125.43;;;119.43;;
239;SDS011;104;53.590;10.004;2023-05-29T06:44:44;127.30;;;121.20;;
239;SDS011;104;53.590;10.004;2023-05-29T06:47:12;120.20;;;114.40;;
239;SDS011;104;53.590;10.004;2023-05-29T06:49:39;100.63;;;95.80;;
239;SDS011;104;53.590;10.004;2023-05-29T06:52:07;113.63;;;108.17;;
239;SDS011;104;53.590;10.004;2023-05-29T06:54:35;85.03;;;80.93;;
239;SDS011;104;53.590;10.004;2023-05-29T06:57:02;80.27;;;76.37;;
239;SDS011;104;53.590;10.004;2023-05-29T06:59:29;72.20;;;68.70;;
239;SDS011;104;53.590;10.004;2023-05-29T07:01:56;82.33;;;78.33;;
239;SDS011;104;53.590;10.004;2023-05-29T07:04:23;98.27;;;93.53;;
239;SDS011;104;53.590;10.004;2023-05-29T07:06:51;53.17;;;49.30;;
239;SDS011;104;53.590;10.004;2023-05-29T07:09:19;69.93;;;66.53;;
239;SDS011;104;53.590;10.004;2023-05-29T07:11:47;55.63;;;52.80;;
239;SDS011;104;53.590;10.004;2023-05-29T07:14:14;54.27;;;51.63;;
239;SDS011;104;53.590;10.004;2023-05-29T07:16:41;48.43;;;41.70;;
239;SDS011;104;53.590;10.004;2023-05-29T07:19:08;44.70;;;42.50;;
239;SDS011;104;53.590;10.004;2023-05-29T07:21:38;61.13;;;58.17;;
239;SDS011;104;53.590;10.004;2023-05-29T07:24:06;26.53;;;25.23;;
239;SDS011;104;53.590;10.004;2023-05-29T07:26:36;55.13;;;52.47;;
239;SDS011;104;53.590;10.004;2023-05-29T07:29:04;23.83;;;21.70;;
239;SDS011;104;53.590;10.004;2023-05-29T07:31:31;30.33;;;20.33;;
239;SDS011;104;53.590;10.004;2023-05-29T07:33:58;23.43;;;17.47;;
239;SDS011;104;53.590;10.004;2023-05-29T07:36:29;21.13;;;13.33;;
239;SDS011;104;53.590;10.004;2023-05-29T07:38:57;15.60;;;9.90;;
239;SDS011;104;53.590;10.004;2023-05-29T07:41:26;18.70;;;14.90;;
239;SDS011;104;53.590;10.004;2023-05-29T07:43:54;38.33;;;36.43;;
239;SDS011;104;53.590;10.004;2023-05-29T07:46:22;29.73;;;27.93;;
239;SDS011;104;53.590;10.004;2023-05-29T07:48:50;28.53;;;25.10;;
239;SDS011;104;53.590;10.004;2023-05-29T07:51:18;49.57;;;47.13;;
239;SDS011;104;53.590;10.004;2023-05-29T07:53:45;105.53;;;100.43;;
239;SDS011;104;53.590;10.004;2023-05-29T07:56:12;90.77;;;86.37;;
239;SDS011;104;53.590;10.004;2023-05-29T07:58:41;46.10;;;42.03;;
239;SDS011;104;53.590;10.004;2023-05-29T08:01:10;51.60;;;48.33;;
239;SDS011;104;53.590;10.004;2023-05-29T08:03:38;85.20;;;81.10;;
239;SDS011;104;53.590;10.004;2023-05-29T08:06:05;110.70;;;105.37;;
239;SDS011;104;53.590;10.004;2023-05-29T08:08:32;87.20;;;83.00;;
239;SDS011;104;53.590;10.004;2023-05-29T08:10:59;102.77;;;97.83;;
239;SDS011;104;53.590;10.004;2023-05-29T08:44:35;105.37;;;100.30;;
239;SDS011;104;53.590;10.004;2023-05-29T08:47:03;102.20;;;97.27;;
239;SDS011;104;53.590;10.004;2023-05-29T08:49:34;89.47;;;85.13;;
239;SDS011;104;53.590;10.004;2023-05-29T08:52:04;91.80;;;87.40;;
239;SDS011;104;53.590;10.004;2023-05-29T08:54:34;88.90;;;84.60;;
239;SDS011;104;53.590;10.004;2023-05-29T08:57:02;82.50;;;78.53;;
239;SDS011;104;53.590;10.004;2023-05-29T08:59:29;87.03;;;82.83;;
239;SDS011;104;53.590;10.004;2023-05-29T09:01:58;103.00;;;98.03;;
239;SDS011;104;53.590;10.004;2023-05-29T09:04:27;91.03;;;86.67;;
239;SDS011;104;53.590;10.004;2023-05-29T09:06:55;40.00;;;38.07;;
239;SDS011;104;53.590;10.004;2023-05-29T09:09:23;25.80;;;24.10;;
239;SDS011;104;53.590;10.004;2023-05-29T09:11:52;33.03;;;27.93;;
239;SDS011;104;53.590;10.004;2023-05-29T09:17:07;29.80;;;23.83;;
239;SDS011;104;53.590;10.004;2023-05-29T09:19:35;40.80;;;38.83;;
239;SDS011;104;53.590;10.004;2023-05-29T09:22:03;30.73;;;22.63;;
239;SDS011;104;53.590;10.004;2023-05-29T09:24:32;20.00;;;18.80;;
239;SDS011;104;53.590;10.004;2023-05-29T09:26:59;28.27;;;20.10;;
239;SDS011;104;53.590;10.004;2023-05-29T09:29:30;50.03;;;47.60;;
239;SDS011;104;53.590;10.004;2023-05-29T09:32:01;45.20;;;43.00;;
239;SDS011;104;53.590;10.004;2023-05-29T10:27:17;113.87;;;108.40;;
239;SDS011;104;53.590;10.004;2023-05-29T10:29:48;162.13;;;154.37;;
239;SDS011;104;53.590;10.004;2023-05-29T10:32:20;183.20;;;174.43;;
239;SDS011;104;53.590;10.004;2023-05-29T10:34:48;204.07;;;194.30;;
239;SDS011;104;53.590;10.004;2023-05-29T10:37:21;50.83;;;48.37;;
239;SDS011;104;53.590;10.004;2023-05-29T10:39:51;109.27;;;104.00;;
239;SDS011;104;53.590;10.004;2023-05-29T10:45:06;118.90;;;113.17;;
239;SDS011;104;53.590;10.004;2023-05-29T10:47:34;216.80;;;206.43;;
239;SDS011;104;53.590;10.004;2023-05-29T10:50:01;213.47;;;203.27;;
239;SDS011;104;53.590;10.004;2023-05-29T10:52:30;201.73;;;192.07;;
239;SDS011;104;53.590;10.004;2023-05-29T10:54:57;213.93;;;203.70;;
239;SDS011;104;53.590;10.004;2023-05-29T10:57:29;214.43;;;204.17;;
239;SDS011;104;53.590;10.004;2023-05-29T11:20:43;183.57;;;174.77;;
239;SDS011;104;53.590;10.004;2023-05-29T11:23:15;324.63;;;309.13;;
239;SDS011;104;53.590;10.004;2023-05-29T11:25:44;171.80;;;163.57;;
239;SDS011;104;53.590;10.004;2023-05-29T11:28:12;333.50;;;317.57;;
239;SDS011;104;53.590;10.004;2023-05-29T11:30:43;324.23;;;308.73;;
239;SDS011;104;53.590;10.004;2023-05-29T11:33:13;432.27;;;398.73;;
239;SDS011;104;53.590;10.004;2023-05-29T11:35:44;469.07;;;427.03;;
239;SDS011;104;53.590;10.004;2023-05-29T11:38:14;395.73;;;373.77;;
239;SDS011;104;53.590;10.004;2023-05-29T11:40:42;350.97;;;334.20;;
239;SDS011;104;53.590;10.004;2023-05-29T11:43:11;351.43;;;334.67;;
239;SDS011;104;53.590;10.004;2023-05-29T11:45:39;306.03;;;291.40;;
239;SDS011;104;53.590;10.004;2023-05-29T11:48:08;159.33;;;151.70;;
239;SDS011;104;53.590;10.004;2023-05-29T11:50:35;258.20;;;245.83;;
239;SDS011;104;53.590;10.004;2023-05-29T11:53:07;116.03;;;110.47;;
239;SDS011;104;53.590;10.004;2023-05-29T11:55:35;211.80;;;201.67;;
239;SDS011;104;53.590;10.004;2023-05-29T11:58:03;131.07;;;124.77;;
239;SDS011;104;53.590;10.004;2023-05-29T12:00:30;263.03;;;250.47;;
239;SDS011;104;53.590;10.004;2023-05-29T12:02:59;92.00;;;87.57;;
239;SDS011;104;53.590;10.004;2023-05-29T12:05:28;76.70;;;72.30;;
239;SDS011;104;53.590;10.004;2023-05-29T12:07:56;50.30;;;45.73;;
239;SDS011;104;53.590;10.004;2023-05-29T12:10:27;42.90;;;35.83;;
239;SDS011;104;53.590;10.004;2023-05-29T12:12:55;37.53;;;30.83;;
239;SDS011;104;53.590;10.004;2023-05-29T12:15:23;42.37;;;34.33;;
239;SDS011;104;53.590;10.004;2023-05-29T12:17:50;76.43;;;72.73;;
239;SDS011;104;53.590;10.004;2023-05-29T12:20:18;47.17;;;44.87;;
239;SDS011;104;53.590;10.004;2023-05-29T12:22:46;27.37;;;25.23;;
239;SDS011;104;53.590;10.004;2023-05-29T12:25:13;20.13;;;19.13;;
239;SDS011;104;53.590;10.004;2023-05-29T12:27:43;35.87;;;33.13;;
239;SDS011;104;53.590;10.004;2023-05-29T12:30:13;37.07;;;35.23;;
239;SDS011;104;53.590;10.004;2023-05-29T12:32:41;35.40;;;33.67;;
239;SDS011;104;53.590;10.004;2023-05-29T12:35:12;54.73;;;52.07;;
239;SDS011;104;53.590;10.004;2023-05-29T12:37:44;60.77;;;56.40;;
239;SDS011;104;53.590;10.004;2023-05-29T12:40:17;107.47;;;102.30;;
239;SDS011;104;53.590;10.004;2023-05-29T12:42:46;113.27;;;107.87;;
239;SDS011;104;53.590;10.004;2023-05-29T12:45:14;74.20;;;70.60;;
239;SDS011;104;53.590;10.004;2023-05-29T12:47:45;145.33;;;138.33;;
239;SDS011;104;53.590;10.004;2023-05-29T12:50:19;137.27;;;130.67;;
239;SDS011;104;53.590;10.004;2023-05-29T12:52:52;158.90;;;151.30;;
239;SDS011;104;53.590;10.004;2023-05-29T12:55:19;149.33;;;142.17;;
239;SDS011;104;53.590;10.004;2023-05-29T12:57:48;174.40;;;166.03;;
239;SDS011;104;53.590;10.004;2023-05-29T13:00:16;125.70;;;119.67;;
239;SDS011;104;53.590;10.004;2023-05-29T13:02:45;172.70;;;164.40;;
239;SDS011;104;53.590;10.004;2023-05-29T13:05:12;165.63;;;157.70;;
239;SDS011;104;53.590;10.004;2023-05-29T13:07:40;142.33;;;135.50;;
239;SDS011;104;53.590;10.004;2023-05-29T13:10:08;149.90;;;142.73;;
239;SDS011;104;53.590;10.004;2023-05-29T13:12:36;252.30;;;240.23;;
239;SDS011;104;53.590;10.004;2023-05-29T13:15:05;156.03;;;148.53;;
239;SDS011;104;53.590;10.004;2023-05-29T13:17:33;123.67;;;117.77;;
239;SDS011;104;53.590;10.004;2023-05-29T13:20:00;82.30;;;78.30;;
239;SDS011;104;53.590;10.004;2023-05-29T13:22:31;52.63;;;47.83;;
239;SDS011;104;53.590;10.004;2023-05-29T13:24:58;61.90;;;58.90;;
239;SDS011;104;53.590;10.004;2023-05-29T13:27:26;54.83;;;49.03;;
239;SDS011;104;53.590;10.004;2023-05-29T13:29:53;45.07;;;42.87;;
239;SDS011;104;53.590;10.004;2023-05-29T13:32:22;48.47;;;46.10;;
239;SDS011;104;53.590;10.004;2023-05-29T13:34:50;57.97;;;55.13;;
239;SDS011;104;53.590;10.004;2023-05-29T13:37:17;61.93;;;58.93;;
239;SDS011;104;53.590;10.004;2023-05-29T13:39:44;54.17;;;51.53;;
239;SDS011;104;53.590;10.004;2023-05-29T13:42:11;78.47;;;74.67;;
239;SDS011;104;53.590;10.004;2023-05-29T13:44:39;90.27;;;85.93;;
239;SDS011;104;53.590;10.004;2023-05-29T13:47:06;93.60;;;89.07;;
239;SDS011;104;53.590;10.004;2023-05-29T13:49:35;92.67;;;88.20;;
239;SDS011;104;53.590;10.004;2023-05-29T13:52:11;121.70;;;115.87;;
239;SDS011;104;53.590;10.004;2023-05-29T13:54:39;129.60;;;123.40;;
239;SDS011;104;53.590;10.004;2023-05-29T13:57:06;175.70;;;167.27;;
239;SDS011;104;53.590;10.004;2023-05-29T13:59:34;170.47;;;162.27;;
239;SDS011;104;53.590;10.004;2023-05-29T14:02:02;151.77;;;144.47;;
239;SDS011;104;53.590;10.004;2023-05-29T14:04:30;112.73;;;107.30;;
239;SDS011;104;53.590;10.004;2023-05-29T14:06:59;200.00;;;190.40;;
239;SDS011;104;53.590;10.004;2023-05-29T14:09:26;201.07;;;191.43;;
239;SDS011;104;53.590;10.004;2023-05-29T14:11:53;205.37;;;195.53;;
239;SDS011;104;53.590;10.004;2023-05-29T14:14:21;177.97;;;169.43;;
239;SDS011;104;53.590;10.004;2023-05-29T14:16:49;187.33;;;178.33;;
239;SDS011;104;53.590;10.004;2023-05-29T14:19:17;162.83;;;155.03;;
239;SDS011;104;53.590;10.004;2023-05-29T14:21:44;188.47;;;179.43;;
239;SDS011;104;53.590;10.004;2023-05-29T14:24:13;186.60;;;177.67;;
239;SDS011;104;53.590;10.004;2023-05-29T14:26:42;165.10;;;157.17;;
239;SDS011;104;53.590;10.004;2023-05-29T14:29:12;180.87;;;172.17;;
239;SDS011;104;53.590;10.004;2023-05-29T14:31:39;186.57;;;177.63;;
239;SDS011;104;53.590;10.004;2023-05-29T14:34:06;201.77;;;192.10;;
239;SDS011;104;53.590;10.004;2023-05-29T14:36:33;221.57;;;210.97;;
239;SDS011;104;53.590;10.004;2023-05-29T14:39:01;107.83;;;102.63;;
239;SDS011;104;53.590;10.004;2023-05-29T14:41:29;179.97;;;171.33;;
239;SDS011;104;53.590;10.004;2023-05-29T14:43:58;105.53;;;100.47;;
239;SDS011;104;53.590;10.004;2023-05-29T14:46:28;306.57;;;291.90;;
239;SDS011;104;53.590;10.004;2023-05-29T14:48:57;91.10;;;86.70;;
239;SDS011;104;53.590;10.004;2023-05-29T14:51:24;85.97;;;81.83;;
239;SDS011;104;53.590;10.004;2023-05-29T14:53:51;126.23;;;120.17;;
239;SDS011;104;53.590;10.004;2023-05-29T14:56:19;81.33;;;77.43;;
239;SDS011;104;53.590;10.004;2023-05-29T14:58:47;66.97;;;60.17;;
239;SDS011;104;53.590;10.004;2023-05-29T15:01:15;45.73;;;36.10;;
239;SDS011;104;53.590;10.004;2023-05-29T15:03:42;78.20;;;74.43;;
239;SDS011;104;53.590;10.004;2023-05-29T15:06:10;50.47;;;39.63;;
239;SDS011;104;53.590;10.004;2023-05-29T15:08:38;38.73;;;36.83;;
239;SDS011;104;53.590;10.004;2023-05-29T15:11:07;46.47;;;41.13;;
239;SDS011;104;53.590;10.004;2023-05-29T15:13:34;43.77;;;36.93;;
239;SDS011;104;53.590;10.004;2023-05-29T15:16:03;49.63;;;46.00;;
239;SDS011;104;53.590;10.004;2023-05-29T15:18:32;51.40;;;45.23;;
239;SDS011;104;53.590;10.004;2023-05-29T15:21:00;92.57;;;88.10;;
239;SDS011;104;53.590;10.004;2023-05-29T15:23:27;63.33;;;60.27;;
239;SDS011;104;53.590;10.004;2023-05-29T15:25:54;60.67;;;57.73;;
239;SDS011;104;53.590;10.004;2023-05-29T15:28:21;69.67;;;66.30;;
239;SDS011;104;53.590;10.004;2023-05-29T15:30:49;54.67;;;52.00;;
239;SDS011;104;53.590;10.004;2023-05-29T15:33:18;184.67;;;175.83;;
239;SDS011;104;53.590;10.004;2023-05-29T15:35:45;190.93;;;181.80;;
239;SDS011;104;53.590;10.004;2023-05-29T15:38:12;156.80;;;149.30;;
239;SDS011;104;53.590;10.004;2023-05-29T15:40:40;58.27;;;55.43;;
239;SDS011;104;53.590;10.004;2023-05-29T15:43:07;45.23;;;43.03;;
239;SDS011;104;53.590;10.004;2023-05-29T15:45:35;48.77;;;41.80;;
239;SDS011;104;53.590;10.004;2023-05-29T15:48:03;45.70;;;43.50;;
239;SDS011;104;53.590;10.004;2023-05-29T15:50:31;155.27;;;147.83;;
239;SDS011;104;53.590;10.004;2023-05-29T15:52:58;79.30;;;75.47;;
239;SDS011;104;53.590;10.004;2023-05-29T15:55:25;390.83;;;372.17;;
239;SDS011;104;53.590;10.004;2023-05-29T15:58:00;731.60;;;629.13;;
239;SDS011;104;53.590;10.004;2023-05-29T16:00:27;184.73;;;175.87;;
239;SDS011;104;53.590;10.004;2023-05-29T16:02:54;170.77;;;162.60;;
239;SDS011;104;53.590;10.004;2023-05-29T16:05:22;29.50;;;28.03;;
239;SDS011;104;53.590;10.004;2023-05-29T16:07:50;27.17;;;20.27;;
239;SDS011;104;53.590;10.004;2023-05-29T16:10:18;26.37;;;22.33;;
239;SDS011;104;53.590;10.004;2023-05-29T16:12:45;22.07;;;15.80;;
239;SDS011;104;53.590;10.004;2023-05-29T16:15:15;32.73;;;31.10;;
239;SDS011;104;53.590;10.004;2023-05-29T16:17:43;42.67;;;37.33;;
239;SDS011;104;53.590;10.004;2023-05-29T16:20:10;38.63;;;33.53;;
239;SDS011;104;53.590;10.004;2023-05-29T16:22:38;31.77;;;29.10;;
239;SDS011;104;53.590;10.004;2023-05-29T16:25:07;24.57;;;14.40;;
239;SDS011;104;53.590;10.004;2023-05-29T16:27:35;22.53;;;12.53;;
239;SDS011;104;53.590;10.004;2023-05-29T16:30:02;24.07;;;19.10;;
239;SDS011;104;53.590;10.004;2023-05-29T16:32:29;32.37;;;23.90;;
239;SDS011;104;53.590;10.004;2023-05-29T16:34:57;34.00;;;21.00;;
239;SDS011;104;53.590;10.004;2023-05-29T16:37:24;19.80;;;12.60;;
239;SDS011;104;53.590;10.004;2023-05-29T16:39:51;19.33;;;11.17;;
239;SDS011;104;53.590;10.004;2023-05-29T16:42:19;23.00;;;13.83;;
239;SDS011;104;53.590;10.004;2023-05-29T16:44:46;18.30;;;13.30;;
239;SDS011;104;53.590;10.004;2023-05-29T16:47:14;23.13;;;12.53;;
239;SDS011;104;53.590;10.004;2023-05-29T16:49:41;19.57;;;13.70;;
239;SDS011;104;53.590;10.004;2023-05-29T16:52:08;17.93;;;12.03;;
239;SDS011;104;53.590;10.004;2023-05-29T16:54:35;20.67;;;13.23;;
239;SDS011;104;53.590;10.004;2023-05-29T16:57:05;15.93;;;9.20;;